Observations for TEES-SIDE, United Kingdom (EGNV)

EGNV 182020Z 20017KT 9999 FEW035 17/12 Q1003
EGNV 181920Z 20017KT 9999 SCT035 18/12 Q1002
EGNV 181850Z 20016KT 9999 SCT035 18/12 Q1002
EGNV 181820Z 21017KT 9999 SCT040 18/12 Q1002
EGNV 181750Z 22017KT 9999 FEW035 18/11 Q1002
EGNV 181720Z 21017KT 9999 FEW035 19/12 Q1002
EGNV 181650Z 22021KT 9999 FEW035 20/12 Q1002
EGNV 181620Z 22022KT 9999 SCT035 19/12 Q1002
EGNV 181550Z 22019KT 9999 FEW020 SCT035 19/12 Q1002 
EGNV 181520Z 22024KT 9999 FEW020 SCT035 18/13 Q1001 
EGNV 181450Z 22022KT 9999 FEW018 BKN025 19/13 Q1001 
EGNV 181420Z 23022KT 9999 BKN024 19/13 Q1001
EGNV 181350Z 23024KT 9999 SCT024 BKN029 18/12 Q1001 
EGNV 181320Z 23025G35KT 9999 FEW025 SCT035 19/11 Q1000  
EGNV 181250Z 22023G34KT 9999 FEW027 SCT034 19/12 Q1000  
EGNV 181220Z 22024KT 9999 FEW015 SCT023 19/14 Q0999 
EGNV 181150Z 22025G36KT 9999 FEW018 SCT021 19/14 Q0998  
EGNV 181120Z 22026KT 9999 VCSH SCT022 20/15 Q0998   
EGNV 181050Z 22024G34KT 9999 VCSH BKN022 20/15 Q0997
EGNV 181020Z 22021KT 9999 VCSH FEW020 BKN026 19/15 Q0997
EGNV 180950Z 21013KT 9999 VCSH BKN018 18/15 Q0996   
EGNV 180920Z 20014KT 9000 VCSH FEW011 BKN017 18/15 Q0996
EGNV 180850Z 18017KT 9000 -RA FEW008 BKN023 17/15 Q0995 
EGNV 180820Z 18017KT 7000 -RA SCT007 BKN019 16/15 Q0994 
EGNV 180750Z 17020KT 5000 -RA SCT008 BKN013 16/14 Q0994 
EGNV 180720Z 17016KT 9999 7000 VCSH FEW015 BKN024 16/14 Q0994   
EGNV 180650Z 16016KT 9999 6000W -RA FEW015 BKN022 16/13 Q0995   
EGNV 180620Z 16014KT 9999 6000W -RA FEW010 SCT022 BKN030 15/13 Q0995
EGNV 180550Z 16013KT 9999 FEW010 SCT027 16/12 Q0996 
EGNV 180520Z 16011KT 9999 FEW021 SCT027 16/11 Q0996 
EGNV 180450Z 17008KT 9999 SCT030 15/10 Q0997